createdAt,value
2018-06-11T00:01:29.396Z,10.60
2018-06-11T00:03:57.824Z,10.33
2018-06-11T00:06:26.233Z,10.47
2018-06-11T00:08:54.651Z,10.10
2018-06-11T00:11:23.051Z,10.20
2018-06-11T00:13:51.485Z,10.60
2018-06-11T00:16:19.892Z,12.10
2018-06-11T00:18:48.335Z,10.67
2018-06-11T00:21:16.752Z,12.17
2018-06-11T00:23:45.168Z,9.87
2018-06-11T00:26:13.605Z,10.10
2018-06-11T00:28:42.039Z,10.60
2018-06-11T00:31:10.435Z,11.60
2018-06-11T00:33:38.859Z,10.00
2018-06-11T00:36:07.282Z,10.23
2018-06-11T00:38:35.708Z,11.00
2018-06-11T00:41:04.112Z,11.87
2018-06-11T00:43:32.547Z,11.73
2018-06-11T00:46:00.952Z,11.30
2018-06-11T00:48:29.404Z,10.33
2018-06-11T00:50:57.825Z,10.63
2018-06-11T00:53:26.263Z,9.83
2018-06-11T00:56:05.850Z,10.63
2018-06-11T00:58:34.324Z,12.00
2018-06-11T01:01:02.870Z,10.97
2018-06-11T01:03:31.316Z,10.83
2018-06-11T01:05:59.745Z,11.47
2018-06-11T01:08:28.156Z,11.93
2018-06-11T01:10:56.595Z,11.20
2018-06-11T01:13:24.999Z,12.70
2018-06-11T01:15:53.456Z,11.40
2018-06-11T01:18:21.864Z,11.27
2018-06-11T01:20:50.291Z,11.73
2018-06-11T01:23:18.717Z,12.90
2018-06-11T01:25:47.143Z,12.13
2018-06-11T01:28:15.564Z,11.87
2018-06-11T01:30:44.008Z,11.50
2018-06-11T01:33:12.411Z,11.70
2018-06-11T01:35:40.845Z,11.40
2018-06-11T01:38:09.252Z,10.73
2018-06-11T01:40:37.669Z,10.17
2018-06-11T01:43:06.074Z,11.77
2018-06-11T01:45:34.615Z,12.63
2018-06-11T01:48:03.021Z,11.70
2018-06-11T01:50:31.424Z,11.63
2018-06-11T01:52:59.857Z,11.37
2018-06-11T01:55:28.272Z,11.30
2018-06-11T01:57:56.735Z,12.27
2018-06-11T02:00:25.164Z,10.87
2018-06-11T02:02:53.577Z,12.17
2018-06-11T02:05:21.988Z,12.73
2018-06-11T02:07:50.412Z,11.87
2018-06-11T02:10:18.827Z,11.93
2018-06-11T02:12:47.251Z,12.23
2018-06-11T02:15:15.692Z,12.00
2018-06-11T02:17:44.125Z,11.00
2018-06-11T02:20:12.537Z,11.77
2018-06-11T02:22:40.959Z,13.67
2018-06-11T02:25:09.376Z,13.40
2018-06-11T02:27:37.843Z,12.90
2018-06-11T02:30:06.257Z,13.03
2018-06-11T02:32:34.704Z,12.57
2018-06-11T02:35:03.124Z,13.60
2018-06-11T02:37:31.565Z,12.60
2018-06-11T02:39:59.973Z,12.70
2018-06-11T02:42:28.379Z,14.10
2018-06-11T02:44:56.804Z,12.60
2018-06-11T02:47:25.208Z,13.03
2018-06-11T02:49:53.642Z,12.60
2018-06-11T02:52:22.059Z,12.40
2018-06-11T02:54:50.488Z,13.70
2018-06-11T02:57:18.912Z,12.97
2018-06-11T02:59:47.330Z,12.60
2018-06-11T03:02:15.766Z,13.90
2018-06-11T03:04:44.193Z,13.80
2018-06-11T03:07:12.618Z,12.37
2018-06-11T03:09:41.070Z,12.93
2018-06-11T03:12:09.479Z,13.47
2018-06-11T03:14:37.892Z,13.70
2018-06-11T03:17:06.324Z,13.40
2018-06-11T03:19:34.727Z,14.40
2018-06-11T03:22:03.155Z,12.43
2018-06-11T03:24:31.564Z,13.40
2018-06-11T03:26:59.988Z,13.97
2018-06-11T03:29:28.400Z,14.80
2018-06-11T03:31:56.907Z,14.87
2018-06-11T03:34:25.324Z,14.30
2018-06-11T03:36:53.743Z,13.60
2018-06-11T03:39:22.163Z,13.77
2018-06-11T03:41:50.579Z,13.43
2018-06-11T03:44:18.983Z,13.70
2018-06-11T03:46:47.404Z,14.50
2018-06-11T03:49:15.812Z,15.20
2018-06-11T03:51:44.231Z,15.30
2018-06-11T03:54:12.621Z,16.20
2018-06-11T03:56:41.035Z,17.00
2018-06-11T03:59:09.411Z,15.67
2018-06-11T04:01:37.828Z,15.40
2018-06-11T04:04:06.215Z,13.70
2018-06-11T04:06:34.669Z,15.03
2018-06-11T04:09:03.142Z,14.33
2018-06-11T04:11:31.539Z,13.23
2018-06-11T04:13:59.644Z,13.70
2018-06-11T04:16:28.036Z,12.80
2018-06-11T04:18:56.445Z,12.47
2018-06-11T04:21:24.843Z,13.00
2018-06-11T04:23:53.251Z,13.67
2018-06-11T04:26:21.628Z,12.93
2018-06-11T04:28:50.028Z,13.40
2018-06-11T04:31:18.421Z,13.27
2018-06-11T04:33:46.839Z,13.60
2018-06-11T04:36:15.228Z,15.67
2018-06-11T04:38:43.636Z,13.57
2018-06-11T04:41:12.017Z,13.57
2018-06-11T04:43:40.412Z,13.87
2018-06-11T04:46:08.796Z,12.90
2018-06-11T04:48:37.203Z,12.33
2018-06-11T04:51:05.591Z,14.00
2018-06-11T04:53:33.971Z,11.13
2018-06-11T04:56:02.388Z,13.40
2018-06-11T04:58:30.765Z,13.20
2018-06-11T05:00:59.178Z,12.73
2018-06-11T05:03:27.569Z,12.60
2018-06-11T05:05:55.973Z,13.00
2018-06-11T05:08:24.356Z,14.40
2018-06-11T05:10:52.763Z,12.10
2018-06-11T05:13:21.141Z,12.80
2018-06-11T05:15:49.540Z,13.13
2018-06-11T05:18:17.935Z,11.60
2018-06-11T05:20:46.332Z,13.07
2018-06-11T05:23:14.719Z,12.87
2018-06-11T05:25:43.124Z,13.40
2018-06-11T05:28:11.516Z,13.30
2018-06-11T05:30:39.911Z,11.40
2018-06-11T05:33:08.301Z,11.07
2018-06-11T05:35:36.715Z,11.27
2018-06-11T05:38:05.437Z,11.73
2018-06-11T05:40:33.857Z,12.33
2018-06-11T05:43:02.256Z,11.97
2018-06-11T05:45:30.661Z,10.63
2018-06-11T05:47:59.107Z,12.37
2018-06-11T05:50:27.468Z,11.90
2018-06-11T05:52:55.872Z,11.83
2018-06-11T05:55:24.279Z,12.20
2018-06-11T05:57:52.679Z,11.47
2018-06-11T06:00:21.084Z,12.07
2018-06-11T06:02:49.495Z,10.93
2018-06-11T06:05:17.868Z,11.07
2018-06-11T06:07:45.977Z,10.87
2018-06-11T06:10:14.368Z,10.67
2018-06-11T06:12:42.772Z,10.37
2018-06-11T06:15:11.167Z,10.23
2018-06-11T06:17:39.570Z,10.33
2018-06-11T06:20:07.961Z,9.50
2018-06-11T06:22:36.379Z,11.20
2018-06-11T06:25:04.811Z,10.70
2018-06-11T06:27:33.208Z,10.23
2018-06-11T06:30:01.590Z,10.93
2018-06-11T06:32:30.002Z,10.43
2018-06-11T06:34:58.386Z,10.20
2018-06-11T06:37:26.759Z,10.77
2018-06-11T06:39:55.152Z,9.80
2018-06-11T06:42:23.536Z,9.73
2018-06-11T06:44:51.948Z,10.10
2018-06-11T06:47:20.328Z,10.87
2018-06-11T06:49:48.723Z,10.90
2018-06-11T06:52:17.094Z,10.03
2018-06-11T06:54:45.497Z,10.03
2018-06-11T06:57:13.872Z,10.10
2018-06-11T06:59:42.273Z,10.70
2018-06-11T07:02:10.675Z,11.43
2018-06-11T07:04:39.088Z,10.40
2018-06-11T07:07:07.499Z,9.23
2018-06-11T07:09:35.904Z,11.30
2018-06-11T07:12:04.347Z,10.03
2018-06-11T07:14:32.750Z,10.93
2018-06-11T07:17:01.131Z,11.70
2018-06-11T07:19:29.523Z,11.23
2018-06-11T07:21:57.901Z,11.03
2018-06-11T07:24:26.312Z,11.70
2018-06-11T07:26:54.701Z,11.10
2018-06-11T07:29:23.120Z,12.33
2018-06-11T07:31:51.533Z,13.50
2018-06-11T07:34:19.931Z,11.23
2018-06-11T07:36:48.340Z,12.20
2018-06-11T07:39:16.736Z,11.07
2018-06-11T07:41:45.148Z,11.43
2018-06-11T07:44:13.538Z,12.70
2018-06-11T07:46:41.941Z,11.50
2018-06-11T07:49:10.327Z,12.10
2018-06-11T07:51:38.776Z,12.33
2018-06-11T07:54:07.240Z,12.27
2018-06-11T07:56:35.648Z,12.40
2018-06-11T07:59:04.073Z,10.97
2018-06-11T08:01:32.206Z,11.50
2018-06-11T08:04:00.632Z,12.20
2018-06-11T08:06:29.039Z,12.13
2018-06-11T08:08:57.431Z,12.97
2018-06-11T08:11:25.843Z,12.07
2018-06-11T08:13:54.255Z,11.87
2018-06-11T08:16:22.655Z,12.80
2018-06-11T08:18:51.060Z,11.60
2018-06-11T08:21:19.460Z,11.90
2018-06-11T08:23:47.851Z,11.47
2018-06-11T08:26:16.296Z,12.47
2018-06-11T08:28:44.681Z,12.10
2018-06-11T08:31:13.068Z,13.20
2018-06-11T08:33:41.478Z,12.27
2018-06-11T08:36:09.881Z,12.67
2018-06-11T08:38:38.296Z,13.80
2018-06-11T08:41:06.722Z,13.13
2018-06-11T08:43:35.201Z,12.33
2018-06-11T08:46:03.592Z,12.07
2018-06-11T08:48:31.988Z,11.70
2018-06-11T08:51:00.372Z,13.60
2018-06-11T08:53:28.763Z,11.30
2018-06-11T08:55:57.150Z,11.77
2018-06-11T08:58:25.551Z,12.20
2018-06-11T09:00:53.981Z,12.60
2018-06-11T09:03:22.371Z,11.97
2018-06-11T09:05:50.755Z,11.30
2018-06-11T09:08:19.159Z,10.00
2018-06-11T09:10:47.539Z,10.87
2018-06-11T09:13:15.952Z,10.00
2018-06-11T09:15:44.324Z,10.30
2018-06-11T09:18:12.848Z,9.60
2018-06-11T09:20:41.143Z,10.40
2018-06-11T09:23:09.530Z,12.47
2018-06-11T09:25:37.923Z,11.90
2018-06-11T09:28:06.320Z,10.20
2018-06-11T09:30:34.735Z,12.37
2018-06-11T09:33:03.133Z,14.17
2018-06-11T09:35:31.569Z,12.17
2018-06-11T09:37:59.976Z,11.97
2018-06-11T09:40:28.380Z,10.83
2018-06-11T09:42:56.762Z,11.10
2018-06-11T09:45:25.175Z,10.73
2018-06-11T09:47:53.560Z,12.97
2018-06-11T09:50:21.978Z,10.40
2018-06-11T09:52:50.367Z,10.70
2018-06-11T09:55:18.766Z,12.27
2018-06-11T09:57:47.168Z,10.47
2018-06-11T10:00:21.023Z,11.37
2018-06-11T10:02:49.428Z,12.17
2018-06-11T10:05:17.821Z,12.10
2018-06-11T10:07:46.237Z,11.33
2018-06-11T10:10:14.620Z,10.93
2018-06-11T10:12:43.056Z,12.00
2018-06-11T10:15:11.453Z,12.27
2018-06-11T10:17:39.847Z,11.10
2018-06-11T10:20:08.276Z,9.53
2018-06-11T10:22:36.667Z,10.80
2018-06-11T10:25:05.249Z,9.27
2018-06-11T10:27:33.653Z,12.23
2018-06-11T10:30:02.049Z,11.27
2018-06-11T10:32:30.475Z,11.73
2018-06-11T10:34:58.851Z,10.73
2018-06-11T10:37:27.248Z,11.20
2018-06-11T10:39:55.632Z,11.23
2018-06-11T10:42:24.040Z,11.80
2018-06-11T10:44:52.452Z,11.57
2018-06-11T10:47:21.295Z,12.43
2018-06-11T10:49:49.695Z,12.20
2018-06-11T10:52:18.068Z,12.07
2018-06-11T10:54:46.482Z,11.60
2018-06-11T10:57:14.869Z,11.67
2018-06-11T10:59:43.266Z,10.93
2018-06-11T11:02:11.383Z,11.87
2018-06-11T11:04:39.794Z,11.07
2018-06-11T11:07:08.181Z,11.50
2018-06-11T11:09:36.592Z,11.53
2018-06-11T11:12:05.009Z,11.30
2018-06-11T11:14:33.422Z,10.97
2018-06-11T11:17:02.191Z,10.80
2018-06-11T11:19:30.595Z,11.17
2018-06-11T11:21:58.976Z,11.50
2018-06-11T11:24:27.372Z,10.17
2018-06-11T11:26:55.772Z,10.27
2018-06-11T11:29:24.218Z,11.73
2018-06-11T11:31:52.647Z,11.10
2018-06-11T11:34:21.072Z,10.70
2018-06-11T11:36:49.451Z,11.63
2018-06-11T11:39:17.833Z,11.20
2018-06-11T11:41:46.236Z,10.27
2018-06-11T11:44:14.615Z,10.07
2018-06-11T11:46:43.012Z,10.20
2018-06-11T11:49:11.397Z,11.70
2018-06-11T11:51:40.933Z,11.07
2018-06-11T11:54:09.403Z,10.37
2018-06-11T11:56:38.056Z,10.17
2018-06-11T11:59:06.487Z,10.27
2018-06-11T12:01:34.907Z,9.63
2018-06-11T12:04:03.294Z,9.83
2018-06-11T12:06:32.314Z,9.63
2018-06-11T12:09:02.120Z,9.90
2018-06-11T12:11:30.573Z,9.10
2018-06-11T12:13:58.947Z,11.30
2018-06-11T12:16:27.360Z,9.60
2018-06-11T12:18:55.735Z,11.33
2018-06-11T12:21:25.520Z,10.93
2018-06-11T12:23:55.846Z,11.13
2018-06-11T12:26:25.728Z,9.87
2018-06-11T12:28:57.253Z,11.10
2018-06-11T12:31:28.284Z,10.43
2018-06-11T12:33:59.414Z,9.70
2018-06-11T12:36:27.920Z,11.03
2018-06-11T12:38:56.303Z,10.70
2018-06-11T12:41:24.685Z,11.00
2018-06-11T12:43:52.808Z,12.20
2018-06-11T12:46:21.197Z,9.97
2018-06-11T12:48:49.596Z,11.13
2018-06-11T12:51:17.987Z,10.33
2018-06-11T12:53:46.380Z,10.73
2018-06-11T12:56:14.803Z,10.93
2018-06-11T12:58:43.191Z,13.20
2018-06-11T13:01:11.601Z,12.87
2018-06-11T13:03:40.001Z,12.20
2018-06-11T13:06:08.396Z,14.10
2018-06-11T13:08:36.792Z,14.17
2018-06-11T13:11:05.192Z,13.47
2018-06-11T13:13:33.610Z,12.80
2018-06-11T13:16:02.001Z,15.47
2018-06-11T13:18:30.406Z,14.00
2018-06-11T13:20:58.819Z,13.63
2018-06-11T13:23:27.228Z,15.03
2018-06-11T13:25:55.631Z,13.87
2018-06-11T13:28:24.035Z,13.80
2018-06-11T13:30:52.415Z,14.03
2018-06-11T13:33:20.857Z,14.83
2018-06-11T13:35:49.248Z,14.17
2018-06-11T13:38:17.637Z,15.40
2018-06-11T13:40:46.033Z,13.63
2018-06-11T13:43:14.412Z,13.63
2018-06-11T13:45:42.823Z,14.90
2018-06-11T13:48:11.215Z,16.23
2018-06-11T13:50:39.615Z,16.00
2018-06-11T13:53:08.034Z,15.10
2018-06-11T13:55:36.459Z,14.60
2018-06-11T13:58:04.948Z,14.67
2018-06-11T14:00:33.387Z,14.03
2018-06-11T14:03:01.774Z,14.90
2018-06-11T14:05:30.180Z,14.33
2018-06-11T14:07:58.603Z,14.03
2018-06-11T14:10:26.979Z,15.60
2018-06-11T14:12:55.364Z,14.87
2018-06-11T14:15:23.769Z,15.47
2018-06-11T14:17:52.151Z,14.20
2018-06-11T14:20:20.560Z,14.17
2018-06-11T14:22:49.019Z,14.33
2018-06-11T14:25:17.419Z,14.53
2018-06-11T14:27:45.812Z,15.27
2018-06-11T14:30:14.195Z,15.53
2018-06-11T14:32:42.596Z,14.47
2018-06-11T14:35:10.983Z,15.47
2018-06-11T14:37:39.412Z,14.10
2018-06-11T14:40:07.807Z,16.00
2018-06-11T14:42:36.212Z,13.87
2018-06-11T14:45:04.935Z,14.67
2018-06-11T14:47:33.333Z,14.97
2018-06-11T14:50:01.721Z,13.90
2018-06-11T14:52:30.123Z,14.60
2018-06-11T14:54:58.502Z,14.90
2018-06-11T14:57:26.911Z,16.10
2018-06-11T14:59:55.295Z,13.37
2018-06-11T15:02:23.706Z,15.90
2018-06-11T15:04:52.092Z,15.13
2018-06-11T15:07:20.487Z,15.80
2018-06-11T15:09:48.880Z,14.13
2018-06-11T15:12:17.298Z,16.27
2018-06-11T15:14:45.688Z,14.47
2018-06-11T15:17:14.068Z,15.10
2018-06-11T15:19:42.482Z,15.23
2018-06-11T15:22:10.885Z,16.53
2018-06-11T15:24:39.503Z,15.60
2018-06-11T15:27:07.884Z,15.40
2018-06-11T15:29:36.292Z,16.40
2018-06-11T15:32:04.708Z,14.53
2018-06-11T15:34:33.109Z,15.10
2018-06-11T15:37:01.584Z,14.73
2018-06-11T15:39:29.987Z,16.27
2018-06-11T15:41:58.372Z,15.40
2018-06-11T15:44:26.780Z,14.63
2018-06-11T15:46:55.161Z,15.07
2018-06-11T15:49:23.551Z,15.13
2018-06-11T15:51:51.928Z,14.77
2018-06-11T15:54:20.322Z,14.03
2018-06-11T15:56:48.731Z,14.93
2018-06-11T15:59:17.144Z,14.00
2018-06-11T16:01:45.556Z,13.77
2018-06-11T16:04:13.979Z,13.43
2018-06-11T16:06:42.355Z,14.67
2018-06-11T16:09:10.752Z,15.63
2018-06-11T16:11:39.133Z,15.60
2018-06-11T16:14:07.535Z,14.50
2018-06-11T16:16:35.929Z,16.40
2018-06-11T16:19:11.139Z,15.90
2018-06-11T16:21:39.528Z,16.67
2018-06-11T16:24:07.916Z,17.50
2018-06-11T16:26:36.323Z,17.00
2018-06-11T16:29:04.939Z,17.13
2018-06-11T16:31:33.368Z,18.40
2018-06-11T16:34:02.094Z,18.23
2018-06-11T16:36:30.501Z,18.80
2018-06-11T16:38:58.898Z,17.70
2018-06-11T16:41:27.319Z,19.23
2018-06-11T16:43:55.700Z,19.97
2018-06-11T16:46:24.108Z,20.73
2018-06-11T16:48:52.569Z,22.73
2018-06-11T16:51:20.926Z,21.43
2018-06-11T16:53:49.317Z,22.27
2018-06-11T16:56:17.723Z,21.60
2018-06-11T16:58:45.819Z,22.10
2018-06-11T17:01:14.287Z,21.50
2018-06-11T17:03:42.654Z,22.70
2018-06-11T17:06:11.053Z,22.10
2018-06-11T17:08:39.444Z,24.23
2018-06-11T17:11:07.851Z,22.70
2018-06-11T17:13:36.243Z,23.03
2018-06-11T17:16:04.663Z,24.40
2018-06-11T17:18:33.041Z,23.40
2018-06-11T17:21:01.459Z,21.43
2018-06-11T17:23:29.849Z,23.43
2018-06-11T17:25:58.251Z,23.50
2018-06-11T17:28:26.643Z,23.73
2018-06-11T17:30:55.028Z,20.47
2018-06-11T17:33:23.441Z,22.80
2018-06-11T17:35:51.835Z,22.97
2018-06-11T17:38:20.235Z,23.53
2018-06-11T17:40:48.624Z,25.37
2018-06-11T17:43:17.040Z,23.40
2018-06-11T17:45:45.430Z,23.80
2018-06-11T17:48:13.835Z,21.90
2018-06-11T17:50:42.215Z,23.37
2018-06-11T17:53:10.623Z,22.97
2018-06-11T17:55:39.018Z,21.50
2018-06-11T17:58:07.421Z,20.83
2018-06-11T18:00:35.877Z,21.83
2018-06-11T18:03:04.268Z,24.13
2018-06-11T18:05:32.701Z,23.17
2018-06-11T18:08:01.109Z,23.83
2018-06-11T18:10:29.487Z,23.77
2018-06-11T18:12:57.900Z,24.47
2018-06-11T18:15:26.302Z,24.73
2018-06-11T18:17:54.699Z,24.20
2018-06-11T18:20:23.091Z,22.60
2018-06-11T18:22:51.476Z,24.13
2018-06-11T18:25:19.872Z,22.43
2018-06-11T18:27:48.251Z,23.30
2018-06-11T18:30:16.652Z,21.73
2018-06-11T18:32:45.046Z,25.10
2018-06-11T18:35:13.456Z,23.50
2018-06-11T18:37:41.835Z,22.63
2018-06-11T18:40:10.249Z,22.40
2018-06-11T18:42:38.632Z,24.90
2018-06-11T18:45:07.051Z,25.03
2018-06-11T18:47:35.428Z,25.23
2018-06-11T18:50:03.957Z,24.03
2018-06-11T18:52:32.340Z,23.20
2018-06-11T18:55:00.740Z,25.90
2018-06-11T18:57:29.121Z,23.70
2018-06-11T18:59:57.549Z,25.93
2018-06-11T19:02:25.948Z,26.90
2018-06-11T19:04:54.364Z,24.57
2018-06-11T19:07:22.763Z,28.60
2018-06-11T19:09:51.156Z,27.87
2018-06-11T19:12:19.603Z,30.20
2018-06-11T19:14:47.976Z,31.40
2018-06-11T19:17:16.396Z,30.43
2018-06-11T19:19:44.767Z,31.23
2018-06-11T19:22:13.184Z,30.63
2018-06-11T19:24:41.566Z,31.90
2018-06-11T19:27:10.013Z,30.60
2018-06-11T19:29:38.468Z,32.50
2018-06-11T19:32:06.847Z,32.10
2018-06-11T19:34:35.232Z,33.00
2018-06-11T19:37:03.667Z,34.20
2018-06-11T19:39:32.300Z,32.50
2018-06-11T19:42:00.703Z,32.27
2018-06-11T19:44:29.131Z,33.20
2018-06-11T19:46:57.529Z,32.23
2018-06-11T19:49:25.923Z,33.97
2018-06-11T19:51:54.334Z,35.27
2018-06-11T19:54:22.763Z,36.70
2018-06-11T19:56:51.144Z,38.43
2018-06-11T19:59:19.532Z,36.43
2018-06-11T20:01:47.928Z,36.70
2018-06-11T20:04:16.338Z,36.13
2018-06-11T20:06:44.757Z,35.43
2018-06-11T20:09:13.177Z,37.73
2018-06-11T20:11:41.572Z,38.27
2018-06-11T20:14:10.813Z,36.00
2018-06-11T20:16:39.208Z,37.07
2018-06-11T20:19:07.624Z,36.90
2018-06-11T20:21:36.020Z,35.17
2018-06-11T20:24:04.467Z,38.03
2018-06-11T20:26:32.839Z,37.63
2018-06-11T20:29:01.244Z,36.13
2018-06-11T20:31:29.756Z,39.43
2018-06-11T20:33:57.866Z,36.83
2018-06-11T20:36:26.247Z,38.70
2018-06-11T20:38:54.667Z,42.40
2018-06-11T20:41:23.060Z,38.73
2018-06-11T20:43:51.452Z,38.90
2018-06-11T20:46:19.864Z,38.37
2018-06-11T20:48:48.236Z,39.10
2018-06-11T20:51:17.411Z,39.60
2018-06-11T20:53:45.796Z,36.27
2018-06-11T20:56:14.212Z,37.67
2018-06-11T20:58:42.595Z,36.93
2018-06-11T21:01:11.015Z,37.10
2018-06-11T21:03:39.400Z,34.80
2018-06-11T21:06:07.824Z,36.10
2018-06-11T21:08:36.202Z,35.47
2018-06-11T21:11:04.631Z,34.77
2018-06-11T21:13:33.008Z,32.50
2018-06-11T21:16:01.539Z,36.80
2018-06-11T21:18:29.976Z,33.87
2018-06-11T21:20:58.373Z,33.33
2018-06-11T21:23:26.754Z,34.07
2018-06-11T21:25:55.210Z,33.40
2018-06-11T21:28:23.579Z,33.10
2018-06-11T21:30:51.982Z,34.07
2018-06-11T21:33:20.383Z,31.37
2018-06-11T21:35:48.779Z,29.57
2018-06-11T21:38:17.156Z,31.80
2018-06-11T21:40:45.311Z,29.50
2018-06-11T21:43:13.693Z,34.67
2018-06-11T21:45:42.074Z,33.13
2018-06-11T21:48:10.460Z,36.63
2018-06-11T21:50:38.839Z,33.20
2018-06-11T21:53:07.240Z,31.70
2018-06-11T21:55:35.627Z,32.10
2018-06-11T21:58:04.081Z,29.47
2018-06-11T22:00:32.500Z,31.27
2018-06-11T22:03:00.916Z,30.90
2018-06-11T22:05:29.303Z,28.90
2018-06-11T22:07:57.714Z,29.03
2018-06-11T22:10:26.168Z,28.07
2018-06-11T22:12:54.557Z,27.43
2018-06-11T22:15:22.936Z,27.97
2018-06-11T22:17:51.335Z,30.00
2018-06-11T22:20:19.703Z,30.60
2018-06-11T22:22:48.117Z,30.23
2018-06-11T22:25:16.487Z,28.90
2018-06-11T22:27:44.895Z,27.30
2018-06-11T22:30:13.276Z,29.63
2018-06-11T22:32:41.664Z,31.87
2018-06-11T22:35:10.071Z,29.30
2018-06-11T22:37:38.460Z,29.97
2018-06-11T22:40:06.852Z,29.10
2018-06-11T22:42:35.236Z,32.20
2018-06-11T22:45:03.713Z,29.80
2018-06-11T22:47:32.088Z,29.37
2018-06-11T22:50:00.492Z,33.20
2018-06-11T22:52:28.866Z,29.20
2018-06-11T22:54:56.994Z,31.93
2018-06-11T22:57:25.380Z,30.87
2018-06-11T22:59:53.806Z,27.57
2018-06-11T23:02:22.220Z,27.13
2018-06-11T23:04:50.631Z,28.17
2018-06-11T23:07:19.020Z,28.50
2018-06-11T23:09:47.423Z,29.70
2018-06-11T23:12:15.825Z,33.60
2018-06-11T23:14:44.215Z,32.47
2018-06-11T23:17:12.611Z,32.40
2018-06-11T23:19:41.016Z,32.67
2018-06-11T23:22:09.399Z,32.07
2018-06-11T23:24:37.793Z,32.00
2018-06-11T23:27:06.184Z,29.30
2018-06-11T23:29:34.601Z,31.70
2018-06-11T23:32:02.976Z,29.20
2018-06-11T23:34:31.351Z,29.13
2018-06-11T23:36:59.739Z,26.50
2018-06-11T23:39:28.116Z,29.33
2018-06-11T23:41:56.527Z,25.93
2018-06-11T23:44:24.908Z,27.43
2018-06-11T23:46:53.318Z,27.77
2018-06-11T23:49:21.697Z,26.60
2018-06-11T23:51:50.085Z,30.23
2018-06-11T23:54:18.468Z,31.37
2018-06-11T23:56:46.871Z,29.80
2018-06-11T23:59:15.280Z,32.80
